Berwick, IA (50032)

1:58 PM CST on December 07, 2016 (GMT -0600)
APRSWXNET | | Change Station

Elev 918 ft 41.63 °N, 93.53 °W | Updated 58 minutes ago

Clear
Clear
23 °F
Feels Like 16 °F
N
6
Wind Variable Wind from West
Gusts 45.0 mph

Today
High -- | Low -- °F
--% Chance of Precip.
Yesterday
High -- | Low -- °F
Precip. -- in
Pressure 30.24 in
Visibility 10.0 miles
Clouds Clear
Windchill 16 °F
Dew Point 14 °F
Humidity 67%
Rainfall in
Snow Depth Not available.
7:28 AM 4:43 PM
First Quarter, 55% visible
METAR KIKV 071955Z AUTO 29015G22KT 10SM CLR M05/M12 A3024 RMK AO2
Pressure 30.24 in
Visibility 10.0 miles
Clouds Clear
Windchill 16 °F
Dew Point 14 °F
Humidity 67%
Rainfall in
Snow Depth Not available.
7:28 AM 4:43 PM
First Quarter, 55% visible
METAR KIKV 071955Z AUTO 29015G22KT 10SM CLR M05/M12 A3024 RMK AO2

10-Day Weather Forecast

Almanac

Astronomy

Dec. 07, 2016 Rise Set
Actual Time
Civil Twilight
Nautical Twilight
Astronomical Twilight
Moon
Length of Visible Light
Length of Day
Tomorrow will be .
, % of the Moon is Illuminated

Today's Extremes

State Highs State Lows

Community

WunderPhotos

Upload Photos

1,956,164 photos uploaded!

WunderBlog® & News

Nearby

Air Quality

  Air Quality AQ Index Pollutant
Not available.

Snow Depth

Station Depth Elevation

Earthquake Activity

City Distance Mag. Time & Date
Minimum magnitude displayed is 2.5.

Coastal Water Temperatures

Place Temperature

Stations

Nearby Weather Stations

Station Location Temp. Windchill Dew Point Humidity Wind Precip. Elev Updated Type
                   

Watches & Warnings

There are currently no watches in effect.